createdAt,value
2023-01-11T00:07:24.500Z,5.10
2023-01-11T00:15:00.259Z,5.10
2023-01-11T00:21:30.009Z,5.20
2023-01-11T00:32:22.396Z,5.30
2023-01-11T00:36:54.559Z,5.20
2023-01-11T00:56:34.477Z,5.40
2023-01-11T01:30:07.135Z,5.00
2023-01-11T01:36:54.716Z,5.70
2023-01-11T02:03:09.418Z,6.00
2023-01-11T02:14:55.330Z,6.00
2023-01-11T02:18:31.343Z,5.90
2023-01-11T02:21:17.706Z,6.10
2023-01-11T02:24:00.510Z,6.20
2023-01-11T02:27:08.181Z,6.00
2023-01-11T02:30:04.227Z,6.00
2023-01-11T02:35:46.801Z,6.30
2023-01-11T02:38:42.525Z,6.30
2023-01-11T02:42:02.109Z,6.30
2023-01-11T02:45:05.714Z,6.30
2023-01-11T02:48:03.339Z,7.30
2023-01-11T02:51:03.505Z,6.00
2023-01-11T02:54:05.957Z,6.40
2023-01-11T02:56:41.155Z,6.40
2023-01-11T02:59:12.624Z,6.80
2023-01-11T03:01:49.341Z,6.40
2023-01-11T03:04:48.368Z,6.40
2023-01-11T03:10:52.762Z,7.30
2023-01-11T03:13:28.493Z,6.40
2023-01-11T03:16:11.605Z,6.30
2023-01-11T03:19:34.234Z,6.50
2023-01-11T03:22:12.741Z,6.50
2023-01-11T03:24:49.273Z,5.80
2023-01-11T03:27:40.703Z,5.30
2023-01-11T03:30:21.517Z,6.60
2023-01-11T03:33:00.831Z,6.50
2023-01-11T03:35:44.857Z,6.60
2023-01-11T03:38:18.395Z,7.20
2023-01-11T03:40:56.138Z,6.70
2023-01-11T03:43:25.488Z,8.50
2023-01-11T03:46:27.730Z,6.70
2023-01-11T03:49:07.345Z,6.80
2023-01-11T03:51:41.595Z,8.30
2023-01-11T03:54:11.845Z,6.70
2023-01-11T03:57:02.623Z,7.20
2023-01-11T03:59:29.719Z,6.80
2023-01-11T04:02:00.634Z,8.10
2023-01-11T04:09:28.518Z,7.50
2023-01-11T04:11:57.808Z,7.80
2023-01-11T04:14:25.361Z,5.90
2023-01-11T04:19:27.040Z,8.00
2023-01-11T04:21:56.881Z,7.10
2023-01-11T04:24:26.990Z,5.40
2023-01-11T04:26:53.986Z,7.80
2023-01-11T04:36:43.425Z,7.80
2023-01-11T04:39:10.856Z,8.10
2023-01-11T04:41:57.396Z,7.50
2023-01-11T04:44:24.809Z,7.00
2023-01-11T04:46:51.938Z,7.30
2023-01-11T04:49:21.832Z,6.70
2023-01-11T04:51:51.818Z,8.10
2023-01-11T04:54:18.995Z,7.50
2023-01-11T04:56:46.010Z,7.30
2023-01-11T04:59:14.132Z,7.20
2023-01-11T05:04:08.559Z,7.50
2023-01-11T05:06:35.566Z,7.50
2023-01-11T05:09:02.570Z,8.60
2023-01-11T05:11:29.558Z,7.80
2023-01-11T05:13:59.957Z,7.50
2023-01-11T05:18:59.713Z,7.50
2023-01-11T05:21:31.205Z,8.70
2023-01-11T05:24:07.967Z,5.90
2023-01-11T05:26:40.304Z,7.60
2023-01-11T05:29:13.203Z,7.60
2023-01-11T05:31:41.798Z,7.50
2023-01-11T05:34:12.219Z,7.60
2023-01-11T05:36:40.607Z,7.60
2023-01-11T05:41:42.100Z,7.70
2023-01-11T05:44:35.342Z,7.70
2023-01-11T05:54:35.338Z,8.30
2023-01-11T05:57:11.736Z,7.80
2023-01-11T06:09:45.986Z,8.60
2023-01-11T06:12:19.730Z,8.00
2023-01-11T06:14:46.942Z,10.00
2023-01-11T06:17:14.153Z,7.90
2023-01-11T06:19:41.321Z,7.00
2023-01-11T06:22:11.119Z,9.40
2023-01-11T06:24:38.251Z,7.60
2023-01-11T06:29:35.584Z,9.90
2023-01-11T06:32:03.447Z,8.10
2023-01-11T06:34:33.448Z,8.80
2023-01-11T06:37:00.571Z,8.10
2023-01-11T06:39:30.588Z,7.80
2023-01-11T06:44:32.281Z,8.70
2023-01-11T06:47:09.862Z,8.20
2023-01-11T06:49:39.047Z,9.80
2023-01-11T06:54:38.180Z,8.20
2023-01-11T06:59:32.572Z,8.20
2023-01-11T07:02:01.870Z,8.40
2023-01-11T07:04:29.071Z,8.20
2023-01-11T07:06:56.378Z,8.30
2023-01-11T07:09:23.500Z,8.40
2023-01-11T07:11:50.527Z,8.30
2023-01-11T07:14:20.064Z,8.90
2023-01-11T07:16:48.198Z,8.30
2023-01-11T07:19:15.404Z,8.30
2023-01-11T07:21:42.503Z,6.40
2023-01-11T07:24:11.713Z,9.80
2023-01-11T07:26:41.374Z,8.40
2023-01-11T07:29:09.047Z,8.90
2023-01-11T07:34:04.313Z,8.40
2023-01-11T07:36:33.924Z,9.70
2023-01-11T07:39:00.988Z,8.90
2023-01-11T07:41:49.654Z,9.10
2023-01-11T07:44:17.658Z,8.30
2023-01-11T07:56:37.473Z,8.50
2023-01-11T07:59:06.934Z,8.60
2023-01-11T08:01:59.842Z,7.20
2023-01-11T08:04:27.188Z,8.50
2023-01-11T08:09:41.867Z,7.30
2023-01-11T08:12:28.018Z,9.10
2023-01-11T08:14:55.504Z,8.10
2023-01-11T08:17:25.565Z,7.80
2023-01-11T08:19:56.459Z,8.50
2023-01-11T08:22:24.039Z,8.50
2023-01-11T08:24:51.222Z,9.50
2023-01-11T08:27:22.354Z,8.50
2023-01-11T08:29:53.747Z,8.60
2023-01-11T08:32:20.977Z,7.70
2023-01-11T08:34:51.691Z,9.70
2023-01-11T08:37:18.904Z,8.10
2023-01-11T08:42:18.939Z,8.60
2023-01-11T08:44:46.350Z,9.90
2023-01-11T08:54:42.277Z,8.70
2023-01-11T08:57:14.781Z,8.20
2023-01-11T09:02:12.316Z,10.10
2023-01-11T09:07:40.373Z,9.30
2023-01-11T09:10:17.328Z,8.80
2023-01-11T09:12:53.783Z,8.90
2023-01-11T09:15:24.243Z,8.40
2023-01-11T09:20:24.528Z,9.00
2023-01-11T09:22:55.213Z,10.10
2023-01-11T09:25:24.314Z,10.10
2023-01-11T09:27:52.411Z,9.10
2023-01-11T09:30:24.780Z,10.20
2023-01-11T09:32:53.249Z,9.30
2023-01-11T09:37:51.517Z,9.10
2023-01-11T09:40:22.167Z,10.40
2023-01-11T09:43:00.835Z,9.20
2023-01-11T09:45:31.316Z,9.40
2023-01-11T09:48:14.809Z,9.10
2023-01-11T09:50:45.672Z,9.20
2023-01-11T09:53:27.456Z,8.90
2023-01-11T09:56:00.673Z,9.30
2023-01-11T09:59:16.940Z,9.30
2023-01-11T10:02:11.380Z,8.50
2023-01-11T10:05:02.699Z,9.00
2023-01-11T10:18:28.494Z,9.40
2023-01-11T10:22:37.249Z,7.40
2023-01-11T10:25:47.037Z,9.40
2023-01-11T10:28:39.524Z,9.40
2023-01-11T10:31:57.319Z,9.40
2023-01-11T10:34:26.351Z,10.10
2023-01-11T10:37:46.672Z,9.30
2023-01-11T10:41:01.677Z,9.30
2023-01-11T10:43:41.650Z,9.30
2023-01-11T10:46:18.027Z,10.80
2023-01-11T10:48:47.183Z,9.30
2023-01-11T10:51:42.338Z,9.30
2023-01-11T10:54:18.241Z,11.10
2023-01-11T10:57:13.432Z,10.00
2023-01-11T11:00:01.896Z,9.30
2023-01-11T11:03:10.262Z,9.30
2023-01-11T11:06:16.127Z,9.30
2023-01-11T11:09:18.620Z,8.00
2023-01-11T11:12:05.154Z,9.40
2023-01-11T11:14:52.698Z,9.40
2023-01-11T11:17:36.291Z,10.40
2023-01-11T11:20:19.843Z,9.40
2023-01-11T11:22:53.803Z,9.40
2023-01-11T11:25:30.934Z,9.30
2023-01-11T11:28:03.569Z,9.30
2023-01-11T11:30:39.297Z,7.50
2023-01-11T11:33:24.539Z,9.30
2023-01-11T11:36:02.229Z,9.30
2023-01-11T11:38:35.252Z,9.20
2023-01-11T11:41:09.442Z,9.20
2023-01-11T11:43:51.394Z,9.20
2023-01-11T11:46:32.220Z,9.10
2023-01-11T11:49:18.024Z,9.10
2023-01-11T11:51:47.052Z,9.00
2023-01-11T11:59:48.595Z,9.00
2023-01-11T12:03:30.594Z,9.00
2023-01-11T12:07:17.675Z,9.00
2023-01-11T12:14:03.700Z,9.00
2023-01-11T12:16:35.965Z,8.40
2023-01-11T12:19:27.823Z,5.50
2023-01-11T12:22:47.574Z,9.30
2023-01-11T12:25:28.889Z,9.10
2023-01-11T12:28:22.804Z,9.00
2023-01-11T12:34:38.647Z,9.00
2023-01-11T12:37:38.539Z,9.00
2023-01-11T12:40:49.668Z,10.10
2023-01-11T12:51:46.018Z,9.10
2023-01-11T12:54:40.455Z,9.00
2023-01-11T12:57:32.032Z,10.40
2023-01-11T13:00:43.546Z,8.90
2023-01-11T13:03:47.971Z,8.80
2023-01-11T13:06:56.926Z,8.90
2023-01-11T13:09:54.244Z,8.60
2023-01-11T13:12:45.952Z,8.90
2023-01-11T13:15:32.405Z,8.90
2023-01-11T13:18:07.265Z,9.10
2023-01-11T13:20:59.425Z,8.90
2023-01-11T13:24:03.701Z,7.50
2023-01-11T13:26:54.579Z,8.80
2023-01-11T13:29:55.154Z,8.80
2023-01-11T13:32:32.826Z,8.70
2023-01-11T13:35:09.024Z,10.50
2023-01-11T13:37:50.437Z,9.30
2023-01-11T13:40:31.900Z,8.50
2023-01-11T13:43:04.773Z,8.70
2023-01-11T13:45:47.915Z,8.70
2023-01-11T13:48:25.278Z,8.80
2023-01-11T13:51:14.551Z,8.30
2023-01-11T13:54:11.861Z,8.90
2023-01-11T13:56:41.972Z,8.90
2023-01-11T13:59:17.000Z,8.90
2023-01-11T14:01:53.727Z,9.50
2023-01-11T14:04:51.832Z,8.80
2023-01-11T14:07:37.699Z,7.20
2023-01-11T14:10:17.406Z,8.70
2023-01-11T14:13:35.669Z,9.30
2023-01-11T14:16:40.503Z,8.40
2023-01-11T14:19:30.033Z,13.20
2023-01-11T14:22:05.911Z,8.10
2023-01-11T14:24:38.909Z,8.40
2023-01-11T14:27:29.588Z,8.90
2023-01-11T14:30:11.731Z,8.30
2023-01-11T14:32:49.932Z,8.80
2023-01-11T14:35:43.864Z,8.20
2023-01-11T14:38:35.670Z,8.20
2023-01-11T14:41:25.876Z,8.10
2023-01-11T14:44:39.038Z,8.30
2023-01-11T14:47:39.899Z,8.00
2023-01-11T14:50:13.528Z,7.90
2023-01-11T14:52:42.348Z,7.30
2023-01-11T14:55:16.178Z,7.10
2023-01-11T14:58:00.190Z,7.90
2023-01-11T15:03:01.763Z,7.80
2023-01-11T15:05:45.584Z,7.80
2023-01-11T15:08:15.797Z,7.20
2023-01-11T15:11:02.844Z,7.80
2023-01-11T15:13:34.979Z,7.80
2023-01-11T15:16:35.227Z,9.30
2023-01-11T15:19:24.945Z,7.80
2023-01-11T15:21:55.713Z,7.80
2023-01-11T15:24:25.344Z,7.80
2023-01-11T15:26:56.149Z,7.80
2023-01-11T15:29:42.387Z,7.70
2023-01-11T15:32:19.373Z,7.70
2023-01-11T15:34:48.411Z,9.40
2023-01-11T15:37:33.720Z,7.70
2023-01-11T15:40:24.973Z,7.70
2023-01-11T15:43:06.844Z,7.70
2023-01-11T15:46:17.344Z,7.60
2023-01-11T15:48:44.491Z,7.60
2023-01-11T15:51:29.828Z,7.70
2023-01-11T15:54:15.760Z,6.10
2023-01-11T15:57:03.970Z,9.30
2023-01-11T16:00:05.365Z,7.80
2023-01-11T16:03:23.154Z,7.60
2023-01-11T16:06:36.344Z,7.80
2023-01-11T16:12:11.548Z,7.60
2023-01-11T16:15:02.627Z,4.50
2023-01-11T16:17:30.558Z,7.10
2023-01-11T16:20:20.045Z,7.70
2023-01-11T16:22:56.907Z,6.20
2023-01-11T16:25:38.080Z,7.50
2023-01-11T16:28:06.054Z,7.80
2023-01-11T16:30:42.712Z,7.40
2023-01-11T16:33:35.977Z,7.40
2023-01-11T16:36:28.808Z,7.30
2023-01-11T16:43:36.579Z,7.20
2023-01-11T16:49:40.053Z,7.20
2023-01-11T16:52:59.110Z,7.10
2023-01-11T16:55:36.624Z,7.10
2023-01-11T16:58:26.686Z,6.90
2023-01-11T17:01:25.476Z,6.90
2023-01-11T17:03:55.394Z,8.60
2023-01-11T17:06:27.406Z,6.90
2023-01-11T17:08:56.957Z,6.80
2023-01-11T17:11:42.594Z,6.90
2023-01-11T17:18:32.692Z,6.60
2023-01-11T17:21:03.207Z,6.90
2023-01-11T17:23:34.532Z,6.80
2023-01-11T17:26:09.029Z,6.30
2023-01-11T17:28:45.889Z,6.80
2023-01-11T17:31:32.240Z,6.70
2023-01-11T17:34:23.631Z,6.50
2023-01-11T17:36:51.107Z,5.50
2023-01-11T17:39:29.835Z,6.70
2023-01-11T17:42:27.047Z,6.70
2023-01-11T17:45:13.132Z,6.60
2023-01-11T17:47:52.263Z,6.70
2023-01-11T17:50:33.102Z,5.80
2023-01-11T17:53:18.378Z,6.60
2023-01-11T17:56:24.658Z,5.90
2023-01-11T17:59:18.330Z,6.60
2023-01-11T18:01:50.697Z,6.70
2023-01-11T18:04:23.189Z,5.90
2023-01-11T18:07:11.995Z,6.70
2023-01-11T18:10:04.005Z,6.70
2023-01-11T18:12:35.678Z,6.60
2023-01-11T18:15:06.119Z,6.90
2023-01-11T18:17:35.161Z,8.30
2023-01-11T18:20:15.169Z,6.50
2023-01-11T18:23:05.060Z,6.80
2023-01-11T18:25:38.987Z,6.80
2023-01-11T18:28:17.567Z,6.20
2023-01-11T18:30:50.951Z,6.70
2023-01-11T18:33:23.292Z,6.70
2023-01-11T18:35:57.928Z,8.10
2023-01-11T18:38:30.898Z,5.80
2023-01-11T18:41:29.583Z,6.60
2023-01-11T18:44:00.125Z,6.60
2023-01-11T18:46:32.158Z,6.60
2023-01-11T18:49:03.525Z,6.50
2023-01-11T18:51:39.616Z,6.50
2023-01-11T18:59:04.219Z,6.60
2023-01-11T19:01:35.249Z,5.70
2023-01-11T19:04:15.483Z,6.80
2023-01-11T19:06:42.592Z,7.90
2023-01-11T19:09:09.620Z,6.40
2023-01-11T19:14:10.388Z,6.20
2023-01-11T19:16:37.475Z,7.70
2023-01-11T19:19:04.584Z,6.70
2023-01-11T19:21:31.925Z,6.90
2023-01-11T19:26:28.843Z,7.00
2023-01-11T19:28:57.413Z,7.20
2023-01-11T19:31:42.154Z,6.70
2023-01-11T19:34:13.126Z,6.70
2023-01-11T19:37:09.388Z,6.60
2023-01-11T19:42:09.217Z,5.90
2023-01-11T19:44:46.029Z,6.70
2023-01-11T19:50:18.602Z,6.70
2023-01-11T19:55:24.236Z,7.10
2023-01-11T19:58:13.195Z,4.40
2023-01-11T20:00:52.335Z,5.40
2023-01-11T20:03:29.288Z,6.40
2023-01-11T20:17:41.935Z,6.60
2023-01-11T20:20:10.343Z,6.30
2023-01-11T20:22:38.014Z,6.30
2023-01-11T20:25:08.938Z,7.10
2023-01-11T20:27:35.918Z,6.20
2023-01-11T20:30:03.352Z,6.90
2023-01-11T20:32:41.765Z,6.90
2023-01-11T20:35:10.920Z,6.90
2023-01-11T20:37:38.925Z,6.50
2023-01-11T20:40:09.607Z,6.00
2023-01-11T20:42:36.915Z,6.00
2023-01-11T20:45:04.337Z,6.50
2023-01-11T20:47:31.567Z,6.90
2023-01-11T20:50:05.289Z,8.20
2023-01-11T20:52:33.757Z,7.20
2023-01-11T20:55:03.685Z,7.40
2023-01-11T21:02:25.871Z,6.60
2023-01-11T21:04:53.266Z,6.60
2023-01-11T21:07:20.580Z,6.60
2023-01-11T21:09:47.520Z,8.30
2023-01-11T21:19:39.153Z,6.60
2023-01-11T21:22:06.272Z,6.50
2023-01-11T21:24:33.221Z,6.60
2023-01-11T21:27:01.053Z,6.00
2023-01-11T21:29:34.315Z,6.50
2023-01-11T21:34:49.139Z,6.50
2023-01-11T21:39:53.759Z,6.70
2023-01-11T21:42:21.084Z,8.00
2023-01-11T21:47:16.941Z,6.70
2023-01-11T21:49:44.143Z,6.20
2023-01-11T21:52:11.890Z,7.00
2023-01-11T21:57:07.803Z,6.50
2023-01-11T22:07:08.377Z,6.50
2023-01-11T22:10:05.632Z,6.50
2023-01-11T22:15:40.838Z,6.60
2023-01-11T22:18:43.466Z,6.60
2023-01-11T22:21:15.410Z,6.70
2023-01-11T22:23:48.414Z,7.50
2023-01-11T22:26:18.323Z,6.70
2023-01-11T22:29:05.996Z,7.40
2023-01-11T22:31:34.137Z,6.70
2023-01-11T22:34:01.809Z,8.40
2023-01-11T22:41:30.841Z,8.50
2023-01-11T22:46:28.309Z,6.70
2023-01-11T22:48:55.656Z,6.60
2023-01-11T22:51:26.499Z,6.80
2023-01-11T22:53:55.261Z,7.50
2023-01-11T22:56:26.767Z,6.80
2023-01-11T22:58:54.524Z,6.80
2023-01-11T23:01:26.004Z,6.90
2023-01-11T23:03:54.582Z,6.80
2023-01-11T23:06:30.396Z,7.80
2023-01-11T23:08:59.523Z,6.90
2023-01-11T23:11:48.233Z,8.00
2023-01-11T23:14:30.150Z,6.90
2023-01-11T23:20:02.559Z,6.80
2023-01-11T23:22:29.786Z,7.60
2023-01-11T23:25:00.220Z,6.80
2023-01-11T23:30:05.738Z,6.70
2023-01-11T23:32:36.195Z,6.70
2023-01-11T23:35:15.890Z,6.70
2023-01-11T23:42:54.572Z,6.70
2023-01-11T23:45:26.700Z,6.80
2023-01-11T23:50:33.205Z,8.70
2023-01-11T23:58:10.358Z,6.90
